Terminal Aerodrome Forecast
Issued by NWS Mt. Holly, NJ

Home | Current Version | Previous Version | Text Only | Print | Product List | Glossary On
Versions: 1 2 3 4 5 6 7 8 9 10 11 12 13 14 15 16 17 18 19 20
000
FTUS41 KPHI 280417 AAB
TAFRDG
TAF AMD
KRDG 280417Z 2804/2824 22006KT P6SM SCT080
      TEMPO 2804/2807 1SM BR BKN015
     FM280700 21003KT 1SM BR OVC015
     FM281400 26008KT P6SM SCT025 BKN150
     FM281600 29008KT P6SM SCT050=

USA.gov is the U.S. government's official web portal to all federal, state and local government web resources and services.